Hurley, South Dakota
Current Conditions -  °F | °C
As of 6:56 AM on Tuesday 21 Oct 2014 (Local Time) from KFSD Reporting Station
Clear Clear  
Wind Chill: 41°   Ceiling: Unl
Heat Index: 41°   Visibility: 10mi
Dew Point: 36°   Wind: 3mph
Humidity: 82%   Direction: 120°ESE
Pressure: 30.09"   Gusts: NA
Location:  43.28°N, 97.09°W
Report Text: KFSD 211156Z 12003KT 10SM CLR 05/02 A3009 RMK AO2 SLP194 T00500022 10067 20028 50006
Loading
Personal Weather Stations






























Interactive Weather Map
Tropical Storm Tracking
New forecast layout! Learn more

10-Day Weather Forecast

Advertisements
Track Severe Weather on mobile